Terminal Aerodrome Forecast
Issued by NWS

Home | Current Version | Previous Version | Text Only | Print | Product List | Glossary Off
Versions: 1 2 3 4 5 6 7 8 9 10 11 12 13

221
FTUS43 KGRB 241152 AAA
TAFMTW
TAF AMD
KMTW 241152Z 2412/2512 VRB03KT 4SM BR SKC
      TEMPO 2412/2414 1SM BR
     FM241400 18004KT P6SM SKC
     FM241700 16008KT P6SM SKC
     FM242300 19006KT P6SM SKC=

USA.gov is the U.S. government's official web portal to all federal, state and local government web resources and services.